sensor_id;sensor_type;location;lat;lon;timestamp;pressure;altitude;pressure_sealevel;temperature;humidity
13367;BME280;6752;52.612;13.630;2023-04-01T00:04:43;99025.81;;;9.89;100.00
13367;BME280;6752;52.612;13.630;2023-04-01T00:09:45;99028.91;;;9.84;100.00
13367;BME280;6752;52.612;13.630;2023-04-01T00:14:47;99037.06;;;9.84;100.00
13367;BME280;6752;52.612;13.630;2023-04-01T00:19:50;99034.06;;;9.83;100.00
13367;BME280;6752;52.612;13.630;2023-04-01T00:24:52;99038.72;;;9.71;100.00
13367;BME280;6752;52.612;13.630;2023-04-01T00:29:55;99039.79;;;9.70;100.00
13367;BME280;6752;52.612;13.630;2023-04-01T00:34:57;99035.45;;;9.85;100.00
13367;BME280;6752;52.612;13.630;2023-04-01T00:39:59;99032.90;;;9.90;100.00
13367;BME280;6752;52.612;13.630;2023-04-01T00:45:23;99028.36;;;9.84;100.00
13367;BME280;6752;52.612;13.630;2023-04-01T00:50:04;99035.45;;;9.85;100.00
13367;BME280;6752;52.612;13.630;2023-04-01T00:55:07;99023.64;;;9.75;100.00
13367;BME280;6752;52.612;13.630;2023-04-01T01:00:10;99033.50;;;9.81;100.00
13367;BME280;6752;52.612;13.630;2023-04-01T01:05:12;99027.11;;;9.81;100.00
13367;BME280;6752;52.612;13.630;2023-04-01T01:10:30;99037.69;;;9.77;100.00
13367;BME280;6752;52.612;13.630;2023-04-01T01:15:32;99039.94;;;9.61;100.00
13367;BME280;6752;52.612;13.630;2023-04-01T01:20:37;99045.30;;;9.67;100.00
13367;BME280;6752;52.612;13.630;2023-04-01T01:36:13;99050.30;;;9.64;100.00
13367;BME280;6752;52.612;13.630;2023-04-01T01:41:16;99050.08;;;9.68;100.00
13367;BME280;6752;52.612;13.630;2023-04-01T01:46:19;99059.59;;;9.68;100.00
13367;BME280;6752;52.612;13.630;2023-04-01T01:51:21;99051.20;;;9.59;100.00
13367;BME280;6752;52.612;13.630;2023-04-01T01:56:23;99060.88;;;9.61;100.00
13367;BME280;6752;52.612;13.630;2023-04-01T02:01:26;99060.67;;;9.67;100.00
13367;BME280;6752;52.612;13.630;2023-04-01T02:06:29;99067.28;;;9.49;100.00
13367;BME280;6752;52.612;13.630;2023-04-01T02:11:49;99070.20;;;9.67;100.00
13367;BME280;6752;52.612;13.630;2023-04-01T02:16:54;99068.66;;;9.63;100.00
13367;BME280;6752;52.612;13.630;2023-04-01T02:21:57;99065.67;;;9.64;100.00
13367;BME280;6752;52.612;13.630;2023-04-01T02:26:58;99061.37;;;9.68;100.00
13367;BME280;6752;52.612;13.630;2023-04-01T02:32:00;99074.58;;;9.57;100.00
13367;BME280;6752;52.612;13.630;2023-04-01T02:37:02;99073.20;;;9.68;100.00
13367;BME280;6752;52.612;13.630;2023-04-01T02:42:05;99069.66;;;9.68;100.00
13367;BME280;6752;52.612;13.630;2023-04-01T02:47:07;99076.12;;;9.62;100.00
13367;BME280;6752;52.612;13.630;2023-04-01T02:52:16;99079.81;;;9.64;100.00
13367;BME280;6752;52.612;13.630;2023-04-01T02:57:18;99080.75;;;9.72;100.00
13367;BME280;6752;52.612;13.630;2023-04-01T03:02:21;99083.77;;;9.65;100.00
13367;BME280;6752;52.612;13.630;2023-04-01T03:07:23;99080.37;;;9.74;100.00
13367;BME280;6752;52.612;13.630;2023-04-01T03:12:26;99079.58;;;9.76;100.00
13367;BME280;6752;52.612;13.630;2023-04-01T03:17:28;99082.16;;;9.77;100.00
13367;BME280;6752;52.612;13.630;2023-04-01T03:22:31;99075.52;;;9.79;100.00
13367;BME280;6752;52.612;13.630;2023-04-01T03:27:33;99073.28;;;9.73;100.00
13367;BME280;6752;52.612;13.630;2023-04-01T03:32:35;99081.62;;;9.66;100.00
13367;BME280;6752;52.612;13.630;2023-04-01T03:37:38;99084.36;;;9.69;100.00
13367;BME280;6752;52.612;13.630;2023-04-01T03:42:40;99092.11;;;9.69;100.00
13367;BME280;6752;52.612;13.630;2023-04-01T03:47:43;99099.86;;;9.69;100.00
13367;BME280;6752;52.612;13.630;2023-04-01T03:52:45;99101.64;;;9.69;100.00
13367;BME280;6752;52.612;13.630;2023-04-01T03:57:48;99109.36;;;9.66;100.00
13367;BME280;6752;52.612;13.630;2023-04-01T04:02:52;99119.91;;;9.71;100.00
13367;BME280;6752;52.612;13.630;2023-04-01T04:07:55;99118.00;;;9.82;100.00
13367;BME280;6752;52.612;13.630;2023-04-01T04:12:57;99121.72;;;9.74;100.00
13367;BME280;6752;52.612;13.630;2023-04-01T04:17:59;99114.38;;;9.74;100.00
13367;BME280;6752;52.612;13.630;2023-04-01T04:23:02;99118.78;;;9.69;100.00
13367;BME280;6752;52.612;13.630;2023-04-01T04:28:04;99128.11;;;9.74;100.00
13367;BME280;6752;52.612;13.630;2023-04-01T04:33:07;99128.27;;;9.75;100.00
13367;BME280;6752;52.612;13.630;2023-04-01T04:38:09;99135.95;;;9.81;100.00
13367;BME280;6752;52.612;13.630;2023-04-01T04:43:12;99140.09;;;9.75;100.00
13367;BME280;6752;52.612;13.630;2023-04-01T04:48:15;99141.61;;;9.77;100.00
13367;BME280;6752;52.612;13.630;2023-04-01T04:53:17;99145.28;;;9.77;100.00
13367;BME280;6752;52.612;13.630;2023-04-01T04:58:19;99147.52;;;9.82;100.00
13367;BME280;6752;52.612;13.630;2023-04-01T05:03:23;99152.05;;;9.85;100.00
13367;BME280;6752;52.612;13.630;2023-04-01T05:08:25;99161.42;;;9.72;100.00
13367;BME280;6752;52.612;13.630;2023-04-01T05:13:28;99163.31;;;9.83;100.00
13367;BME280;6752;52.612;13.630;2023-04-01T05:18:30;99168.69;;;9.89;100.00
13367;BME280;6752;52.612;13.630;2023-04-01T05:23:33;99171.66;;;9.87;100.00
13367;BME280;6752;52.612;13.630;2023-04-01T05:28:35;99172.89;;;9.88;100.00
13367;BME280;6752;52.612;13.630;2023-04-01T05:33:37;99181.32;;;9.75;100.00
13367;BME280;6752;52.612;13.630;2023-04-01T05:38:40;99182.36;;;9.83;100.00
13367;BME280;6752;52.612;13.630;2023-04-01T05:43:42;99180.52;;;9.77;100.00
13367;BME280;6752;52.612;13.630;2023-04-01T05:48:46;99187.86;;;9.88;100.00
13367;BME280;6752;52.612;13.630;2023-04-01T05:53:49;99185.92;;;9.94;100.00
13367;BME280;6752;52.612;13.630;2023-04-01T05:58:52;99195.93;;;9.91;100.00
13367;BME280;6752;52.612;13.630;2023-04-01T06:03:53;99202.81;;;10.07;100.00
13367;BME280;6752;52.612;13.630;2023-04-01T06:08:57;99197.66;;;10.08;100.00
13367;BME280;6752;52.612;13.630;2023-04-01T06:19:12;99209.37;;;10.20;100.00
13367;BME280;6752;52.612;13.630;2023-04-01T06:30:01;99222.25;;;10.24;100.00
13367;BME280;6752;52.612;13.630;2023-04-01T06:35:11;99233.10;;;10.33;100.00
13367;BME280;6752;52.612;13.630;2023-04-01T06:40:36;99236.52;;;10.34;100.00
13367;BME280;6752;52.612;13.630;2023-04-01T06:56:32;99244.30;;;10.23;100.00
13367;BME280;6752;52.612;13.630;2023-04-01T07:01:52;99251.15;;;9.89;100.00
13367;BME280;6752;52.612;13.630;2023-04-01T07:06:58;99251.59;;;9.81;100.00
13367;BME280;6752;52.612;13.630;2023-04-01T07:11:56;99266.16;;;9.64;100.00
13367;BME280;6752;52.612;13.630;2023-04-01T07:17:05;99269.29;;;9.64;100.00
13367;BME280;6752;52.612;13.630;2023-04-01T07:27:24;99281.73;;;9.43;100.00
13367;BME280;6752;52.612;13.630;2023-04-01T07:37:52;99281.33;;;9.43;100.00
13367;BME280;6752;52.612;13.630;2023-04-01T07:43:11;99297.08;;;9.33;100.00
13367;BME280;6752;52.612;13.630;2023-04-01T07:53:32;99304.34;;;9.21;100.00
13367;BME280;6752;52.612;13.630;2023-04-01T08:04:08;99306.47;;;9.25;100.00
13367;BME280;6752;52.612;13.630;2023-04-01T08:09:22;99305.48;;;9.31;100.00
13367;BME280;6752;52.612;13.630;2023-04-01T08:20:07;99314.52;;;9.51;100.00
13367;BME280;6752;52.612;13.630;2023-04-01T08:25:05;99319.36;;;9.32;100.00
13367;BME280;6752;52.612;13.630;2023-04-01T08:35:28;99325.50;;;9.11;100.00
13367;BME280;6752;52.612;13.630;2023-04-01T08:51:59;99337.33;;;9.33;100.00
13367;BME280;6752;52.612;13.630;2023-04-01T09:07:50;99352.03;;;9.43;100.00
13367;BME280;6752;52.612;13.630;2023-04-01T09:18:21;99352.73;;;9.28;100.00
13367;BME280;6752;52.612;13.630;2023-04-01T09:28:42;99370.36;;;9.25;100.00
13367;BME280;6752;52.612;13.630;2023-04-01T09:33:54;99375.06;;;9.30;100.00
13367;BME280;6752;52.612;13.630;2023-04-01T09:38:57;99378.97;;;9.28;100.00
13367;BME280;6752;52.612;13.630;2023-04-01T09:44:17;99380.66;;;9.31;100.00
13367;BME280;6752;52.612;13.630;2023-04-01T09:49:39;99396.89;;;9.20;100.00
13367;BME280;6752;52.612;13.630;2023-04-01T09:55:06;99402.00;;;9.17;100.00
13367;BME280;6752;52.612;13.630;2023-04-01T10:00:28;99402.04;;;9.25;100.00
13367;BME280;6752;52.612;13.630;2023-04-01T10:11:04;99412.48;;;9.39;100.00
13367;BME280;6752;52.612;13.630;2023-04-01T10:21:40;99421.61;;;9.25;100.00
13367;BME280;6752;52.612;13.630;2023-04-01T10:26:57;99422.56;;;9.33;100.00
13367;BME280;6752;52.612;13.630;2023-04-01T10:37:49;99424.67;;;9.37;100.00
13367;BME280;6752;52.612;13.630;2023-04-01T10:53:58;99440.95;;;9.14;100.00
13367;BME280;6752;52.612;13.630;2023-04-01T11:10:19;99451.34;;;9.03;100.00
13367;BME280;6752;52.612;13.630;2023-04-01T11:15:48;99455.95;;;9.02;100.00
13367;BME280;6752;52.612;13.630;2023-04-01T11:36:48;99480.73;;;8.86;100.00
13367;BME280;6752;52.612;13.630;2023-04-01T11:42:07;99489.77;;;8.83;100.00
13367;BME280;6752;52.612;13.630;2023-04-01T11:47:38;99495.08;;;8.72;100.00
13367;BME280;6752;52.612;13.630;2023-04-01T11:52:42;99495.09;;;8.66;100.00
13367;BME280;6752;52.612;13.630;2023-04-01T12:08:53;99513.75;;;8.69;100.00
13367;BME280;6752;52.612;13.630;2023-04-01T12:13:55;99519.61;;;8.57;100.00
13367;BME280;6752;52.612;13.630;2023-04-01T12:18:59;99521.63;;;8.56;100.00
13367;BME280;6752;52.612;13.630;2023-04-01T12:34:57;99533.89;;;8.64;100.00
13367;BME280;6752;52.612;13.630;2023-04-01T12:45:30;99549.40;;;8.49;100.00
13367;BME280;6752;52.612;13.630;2023-04-01T12:50:50;99554.09;;;8.63;100.00
13367;BME280;6752;52.612;13.630;2023-04-01T12:55:48;99562.98;;;8.49;100.00
13367;BME280;6752;52.612;13.630;2023-04-01T13:01:16;99573.63;;;8.56;100.00
13367;BME280;6752;52.612;13.630;2023-04-01T13:06:32;99580.69;;;8.45;100.00
13367;BME280;6752;52.612;13.630;2023-04-01T13:22:27;99593.69;;;8.28;100.00
13367;BME280;6752;52.612;13.630;2023-04-01T13:27:34;99608.20;;;8.13;100.00
13367;BME280;6752;52.612;13.630;2023-04-01T13:33:00;99608.72;;;8.43;100.00
13367;BME280;6752;52.612;13.630;2023-04-01T13:48:28;99627.11;;;8.26;100.00
13367;BME280;6752;52.612;13.630;2023-04-01T13:58:58;99638.56;;;8.28;100.00
13367;BME280;6752;52.612;13.630;2023-04-01T14:20:20;99662.23;;;8.00;100.00
13367;BME280;6752;52.612;13.630;2023-04-01T14:36:25;99683.87;;;7.82;100.00
13367;BME280;6752;52.612;13.630;2023-04-01T14:41:35;99686.38;;;7.90;100.00
13367;BME280;6752;52.612;13.630;2023-04-01T14:47:07;99687.94;;;7.82;100.00
13367;BME280;6752;52.612;13.630;2023-04-01T14:52:28;99706.19;;;7.72;100.00
13367;BME280;6752;52.612;13.630;2023-04-01T14:57:30;99705.07;;;7.61;100.00
13367;BME280;6752;52.612;13.630;2023-04-01T15:02:54;99714.69;;;7.48;100.00
13367;BME280;6752;52.612;13.630;2023-04-01T15:07:58;99721.65;;;7.41;100.00
13367;BME280;6752;52.612;13.630;2023-04-01T15:18:09;99725.83;;;7.49;100.00
13367;BME280;6752;52.612;13.630;2023-04-01T15:28:53;99745.86;;;7.39;100.00
13367;BME280;6752;52.612;13.630;2023-04-01T15:44:51;99764.81;;;7.01;100.00
13367;BME280;6752;52.612;13.630;2023-04-01T15:49:37;99775.27;;;6.98;100.00
13367;BME280;6752;52.612;13.630;2023-04-01T16:00:23;99796.08;;;6.69;100.00
13367;BME280;6752;52.612;13.630;2023-04-01T16:05:35;99803.37;;;6.69;100.00
13367;BME280;6752;52.612;13.630;2023-04-01T16:11:01;99801.63;;;6.65;100.00
13367;BME280;6752;52.612;13.630;2023-04-01T16:26:36;99834.31;;;6.44;100.00
13367;BME280;6752;52.612;13.630;2023-04-01T16:37:13;99848.39;;;6.34;100.00
13367;BME280;6752;52.612;13.630;2023-04-01T16:47:31;99862.61;;;6.19;100.00
13367;BME280;6752;52.612;13.630;2023-04-01T16:52:30;99874.27;;;6.10;100.00
13367;BME280;6752;52.612;13.630;2023-04-01T16:57:37;99883.64;;;6.08;100.00
13367;BME280;6752;52.612;13.630;2023-04-01T17:02:39;99900.42;;;5.97;100.00
13367;BME280;6752;52.612;13.630;2023-04-01T17:13:19;99920.81;;;5.93;100.00
13367;BME280;6752;52.612;13.630;2023-04-01T17:23:50;99941.25;;;5.59;100.00
13367;BME280;6752;52.612;13.630;2023-04-01T17:34:56;99955.66;;;5.42;100.00
13367;BME280;6752;52.612;13.630;2023-04-01T17:39:33;99966.58;;;5.41;100.00
13367;BME280;6752;52.612;13.630;2023-04-01T17:44:44;99973.22;;;5.35;100.00
13367;BME280;6752;52.612;13.630;2023-04-01T17:55:42;99993.58;;;5.28;100.00
13367;BME280;6752;52.612;13.630;2023-04-01T18:06:18;100020.20;;;5.10;100.00
13367;BME280;6752;52.612;13.630;2023-04-01T18:22:21;100044.91;;;5.04;100.00
13367;BME280;6752;52.612;13.630;2023-04-01T18:27:40;100055.17;;;4.98;100.00
13367;BME280;6752;52.612;13.630;2023-04-01T18:32:58;100062.20;;;4.96;100.00
13367;BME280;6752;52.612;13.630;2023-04-01T18:48:54;100099.67;;;4.91;100.00
13367;BME280;6752;52.612;13.630;2023-04-01T18:53:58;100101.17;;;4.80;100.00
13367;BME280;6752;52.612;13.630;2023-04-01T18:59:25;100118.22;;;4.84;100.00
13367;BME280;6752;52.612;13.630;2023-04-01T19:09:47;100138.68;;;4.71;100.00
13367;BME280;6752;52.612;13.630;2023-04-01T19:20:36;100150.54;;;4.60;100.00
13367;BME280;6752;52.612;13.630;2023-04-01T19:25:39;100158.05;;;4.64;100.00
13367;BME280;6752;52.612;13.630;2023-04-01T19:30:50;100159.59;;;4.63;100.00
13367;BME280;6752;52.612;13.630;2023-04-01T19:35:52;100173.57;;;4.48;100.00
13367;BME280;6752;52.612;13.630;2023-04-01T19:41:01;100180.05;;;4.40;100.00
13367;BME280;6752;52.612;13.630;2023-04-01T19:56:33;100208.28;;;4.30;100.00
13367;BME280;6752;52.612;13.630;2023-04-01T20:01:37;100216.73;;;4.34;100.00
13367;BME280;6752;52.612;13.630;2023-04-01T20:27:38;100271.70;;;4.15;100.00
13367;BME280;6752;52.612;13.630;2023-04-01T20:32:53;100280.84;;;3.99;100.00
13367;BME280;6752;52.612;13.630;2023-04-01T20:37:58;100291.43;;;4.01;100.00
13367;BME280;6752;52.612;13.630;2023-04-01T21:04:10;100322.52;;;3.82;100.00
13367;BME280;6752;52.612;13.630;2023-04-01T21:14:35;100336.72;;;3.76;100.00
13367;BME280;6752;52.612;13.630;2023-04-01T21:25:21;100343.09;;;3.64;100.00
13367;BME280;6752;52.612;13.630;2023-04-01T21:41:08;100369.95;;;3.65;100.00
13367;BME280;6752;52.612;13.630;2023-04-01T22:01:59;100390.20;;;3.42;100.00
13367;BME280;6752;52.612;13.630;2023-04-01T22:07:02;100405.91;;;3.46;100.00
13367;BME280;6752;52.612;13.630;2023-04-01T22:12:20;100412.86;;;3.41;100.00
13367;BME280;6752;52.612;13.630;2023-04-01T22:17:28;100417.02;;;3.47;100.00
13367;BME280;6752;52.612;13.630;2023-04-01T22:28:16;100422.20;;;3.41;100.00
13367;BME280;6752;52.612;13.630;2023-04-01T22:33:27;100434.36;;;3.37;100.00
13367;BME280;6752;52.612;13.630;2023-04-01T22:38:38;100435.95;;;3.39;100.00
13367;BME280;6752;52.612;13.630;2023-04-01T22:43:40;100442.95;;;3.37;100.00
13367;BME280;6752;52.612;13.630;2023-04-01T22:48:49;100451.15;;;3.43;100.00
13367;BME280;6752;52.612;13.630;2023-04-01T22:54:04;100460.41;;;3.33;100.00
13367;BME280;6752;52.612;13.630;2023-04-01T23:04:15;100471.88;;;3.31;100.00
13367;BME280;6752;52.612;13.630;2023-04-01T23:09:23;100477.77;;;3.27;100.00
13367;BME280;6752;52.612;13.630;2023-04-01T23:19:35;100492.73;;;3.29;100.00
13367;BME280;6752;52.612;13.630;2023-04-01T23:24:41;100493.66;;;3.29;100.00
13367;BME280;6752;52.612;13.630;2023-04-01T23:29:49;100513.21;;;3.27;100.00
13367;BME280;6752;52.612;13.630;2023-04-01T23:34:55;100521.92;;;3.22;100.00
13367;BME280;6752;52.612;13.630;2023-04-01T23:39:54;100530.66;;;3.24;100.00
13367;BME280;6752;52.612;13.630;2023-04-01T23:45:00;100533.47;;;3.30;100.00
13367;BME280;6752;52.612;13.630;2023-04-01T23:50:13;100547.41;;;3.11;100.00
13367;BME280;6752;52.612;13.630;2023-04-01T23:55:21;100555.64;;;3.14;100.00
